createdAt,value
2022-12-12T00:01:53.296Z,24.59716796875
2022-12-12T00:11:53.234Z,24.40185546875
2022-12-12T00:21:53.186Z,24.59716796875
2022-12-12T00:31:53.104Z,24.40185546875
2022-12-12T00:41:53.051Z,25.09765625
2022-12-12T00:51:52.969Z,24.90234375
2022-12-12T01:01:52.966Z,25.8056640625
2022-12-12T01:11:52.820Z,25.9033203125
2022-12-12T01:21:52.737Z,26.708984375
2022-12-12T01:31:52.747Z,25.6103515625
2022-12-12T01:41:52.596Z,25.8056640625
2022-12-12T01:51:52.512Z,26.1962890625
2022-12-12T02:01:52.571Z,26.3916015625
2022-12-12T02:11:52.371Z,25.7080078125
2022-12-12T02:21:52.300Z,25.48828125
2022-12-12T02:31:52.259Z,24.8046875
2022-12-12T02:41:52.173Z,24.40185546875
2022-12-12T02:51:52.125Z,23.7060546875
2022-12-12T03:01:52.080Z,23.40087890625
2022-12-12T03:11:52.042Z,22.49755859375
2022-12-12T03:21:51.872Z,22.0947265625
2022-12-12T03:31:51.928Z,21.9970703125
2022-12-12T03:41:51.771Z,21.8017578125
2022-12-12T03:51:51.752Z,21.39892578125
2022-12-12T04:01:51.665Z,21.10595703125
2022-12-12T04:11:51.616Z,20.99609375
2022-12-12T04:21:51.458Z,20.703125
2022-12-12T04:31:51.533Z,20.703125
2022-12-12T04:41:51.335Z,20.49560546875
2022-12-12T04:51:51.336Z,20.30029296875
2022-12-12T05:01:53.363Z,20.30029296875
2022-12-12T05:11:51.084Z,19.8974609375
2022-12-12T05:21:51.043Z,19.6044921875
2022-12-12T05:31:50.979Z,19.6044921875
2022-12-12T05:41:50.875Z,19.39697265625
2022-12-12T05:51:50.903Z,19.10400390625
2022-12-12T06:01:50.736Z,18.701171875
2022-12-12T06:11:50.693Z,18.39599609375
2022-12-12T06:21:50.602Z,18.29833984375
2022-12-12T06:31:50.508Z,18.20068359375
2022-12-12T06:41:50.451Z,17.8955078125
2022-12-12T07:01:50.421Z,17.10205078125
2022-12-12T07:11:50.263Z,16.796875
2022-12-12T07:21:50.177Z,16.50390625
2022-12-12T07:31:50.119Z,16.50390625
2022-12-12T07:41:50.017Z,16.10107421875
2022-12-12T07:51:49.951Z,15.7958984375
2022-12-12T08:01:50.007Z,15.90576171875
2022-12-12T08:11:49.804Z,15.6982421875
2022-12-12T08:21:49.734Z,15.5029296875
2022-12-12T08:31:49.753Z,15.29541015625
2022-12-12T08:41:49.635Z,15.10009765625
2022-12-12T08:51:49.545Z,14.90478515625
2022-12-12T09:01:49.569Z,14.794921875
2022-12-12T09:11:49.395Z,14.90478515625
2022-12-12T09:21:49.432Z,14.697265625
2022-12-12T09:31:49.329Z,14.599609375
2022-12-12T09:41:49.231Z,14.599609375
2022-12-12T09:51:49.107Z,14.404296875
2022-12-12T10:01:49.078Z,14.404296875
2022-12-12T10:11:50.707Z,14.29443359375
2022-12-12T10:21:48.944Z,14.29443359375
2022-12-12T10:31:48.884Z,14.29443359375
2022-12-12T10:41:48.783Z,14.09912109375
2022-12-12T10:51:48.724Z,14.00146484375
2022-12-12T11:02:10.265Z,13.6962890625
2022-12-12T11:11:48.650Z,13.5986328125
2022-12-12T11:21:48.487Z,13.5009765625
2022-12-12T11:31:48.628Z,13.5009765625
2022-12-12T11:41:48.359Z,13.5009765625
2022-12-12T11:51:48.413Z,13.5986328125
2022-12-12T12:01:48.245Z,13.5009765625
2022-12-12T12:11:48.181Z,13.3056640625
2022-12-12T12:21:48.228Z,13.4033203125
2022-12-12T12:31:48.035Z,13.3056640625
2022-12-12T12:41:48.060Z,13.3056640625
2022-12-12T12:51:50.446Z,13.19580078125
2022-12-12T13:01:47.857Z,13.00048828125
2022-12-12T13:11:47.837Z,12.80517578125
2022-12-12T13:21:47.668Z,12.80517578125
2022-12-12T13:31:47.612Z,12.80517578125
2022-12-12T13:41:47.512Z,12.59765625
2022-12-12T13:51:47.454Z,12.59765625
2022-12-12T14:01:47.430Z,12.6953125
2022-12-12T14:11:47.320Z,12.6953125
2022-12-12T14:21:47.276Z,12.6953125
2022-12-12T14:31:47.244Z,12.59765625
2022-12-12T14:41:47.116Z,12.59765625
2022-12-12T14:51:47.052Z,12.5
2022-12-12T15:01:47.000Z,12.59765625
2022-12-12T15:11:46.895Z,12.5
2022-12-12T15:21:46.871Z,12.5
2022-12-12T15:31:46.896Z,12.5
2022-12-12T15:41:46.729Z,12.40234375
2022-12-12T15:51:46.631Z,12.5
2022-12-12T16:01:46.707Z,12.40234375
2022-12-12T16:11:46.476Z,12.298583984375
2022-12-12T16:21:46.433Z,12.40234375
2022-12-12T16:31:46.476Z,12.298583984375
2022-12-12T16:41:46.270Z,12.298583984375
2022-12-12T16:51:46.203Z,12.40234375
2022-12-12T17:01:46.171Z,12.40234375
2022-12-12T17:11:46.210Z,12.40234375
2022-12-12T17:21:46.005Z,12.5
2022-12-12T17:31:46.002Z,12.5
2022-12-12T17:41:45.886Z,12.5
2022-12-12T17:51:45.792Z,12.59765625
2022-12-12T18:01:45.712Z,12.6953125
2022-12-12T18:11:45.636Z,12.80517578125
2022-12-12T18:22:01.265Z,12.80517578125
2022-12-12T18:31:45.586Z,12.90283203125
2022-12-12T18:41:45.437Z,12.90283203125
2022-12-12T18:51:45.370Z,13.00048828125
2022-12-12T19:01:45.470Z,13.00048828125
2022-12-12T19:11:45.371Z,13.09814453125
2022-12-12T19:21:45.159Z,13.19580078125
2022-12-12T19:31:45.095Z,13.3056640625
2022-12-12T19:41:45.117Z,13.5009765625
2022-12-12T19:51:45.093Z,13.5986328125
2022-12-12T20:01:44.933Z,13.90380859375
2022-12-12T20:11:44.837Z,14.501953125
2022-12-12T20:22:00.864Z,15.5029296875
2022-12-12T20:31:44.726Z,16.50390625
2022-12-12T20:41:44.624Z,17.7978515625
2022-12-12T20:51:56.746Z,18.603515625
2022-12-12T21:01:44.606Z,19.39697265625
2022-12-12T21:11:44.414Z,19.8974609375
2022-12-12T21:21:44.315Z,20.60546875
2022-12-12T21:31:50.257Z,21.20361328125
2022-12-12T21:41:44.225Z,21.39892578125
2022-12-12T21:51:44.143Z,22.59521484375
2022-12-12T22:01:44.071Z,22.705078125
2022-12-12T22:11:49.690Z,22.900390625
2022-12-12T22:21:43.913Z,23.30322265625
2022-12-12T22:31:43.964Z,23.59619140625
2022-12-12T22:41:43.764Z,24.69482421875
2022-12-12T22:51:43.687Z,25.48828125
2022-12-12T23:01:43.641Z,26.708984375
2022-12-12T23:11:43.559Z,26.3916015625
2022-12-12T23:21:43.494Z,27.7099609375
2022-12-12T23:31:43.507Z,27.099609375
2022-12-12T23:41:43.317Z,25.8056640625
2022-12-12T23:51:43.262Z,27.294921875
